KARV

Lakeland / Noble F Lee Memorial Field Airport

Minocqua-Woodruff, Wisconsin, USA
METAR KARV 170315Z AUTO 31008G14KT 10SM OVC027 03/M03 A3000 RMK AO2 T00251026
Observed Flight Rules
Oct-17 @ 03:15 UTC (21 minutes ago) Marginal Visual Flight Rules
Wind Visibility Clouds
310° at 8 knots
 Gusting to 14 knots
10 miles
  • Overcast at 2,700' AGL
Temperatures Readings
Current 3°C / 37°F
Dewpoint -3°C / 27°F
Humidity 65%
Altimeter 30" Hg
Pressure 1016 hPa
Elevation 496
METAR KARV 170315Z AUTO 31008G14KT 10SM OVC027 03/M03 A3000 RMK AO2 T00251026
Observed Flight Rules
Oct-17 @ 03:15 UTC
(21 minutes ago)
MVFR
Wind Visibility
310° at 8 knots
 Gusting to 14 knots
10 miles
Clouds
  • Overcast at 2,700' AGL
Temperature Dewpoint
3°C / 37°F -3°C / 27°F
Humidity Altimeter Pressure
65% 30" Hg 1016 hPa